sensor_id;sensor_type;location;lat;lon;timestamp;P1;durP1;ratioP1;P2;durP2;ratioP2
34433;SDS011;34290;48.562;13.384;2023-02-28T00:01:48;14.83;;;6.10;;
34433;SDS011;34290;48.562;13.384;2023-02-28T00:04:17;11.53;;;6.00;;
34433;SDS011;34290;48.562;13.384;2023-02-28T00:06:43;21.60;;;8.57;;
34433;SDS011;34290;48.562;13.384;2023-02-28T00:09:10;16.87;;;7.53;;
34433;SDS011;34290;48.562;13.384;2023-02-28T00:11:38;22.87;;;9.70;;
34433;SDS011;34290;48.562;13.384;2023-02-28T00:14:05;23.90;;;8.57;;
34433;SDS011;34290;48.562;13.384;2023-02-28T00:16:32;17.43;;;7.50;;
34433;SDS011;34290;48.562;13.384;2023-02-28T00:18:59;19.70;;;7.50;;
34433;SDS011;34290;48.562;13.384;2023-02-28T00:21:31;13.60;;;6.57;;
34433;SDS011;34290;48.562;13.384;2023-02-28T00:23:58;16.60;;;5.97;;
34433;SDS011;34290;48.562;13.384;2023-02-28T00:26:25;15.03;;;6.40;;
34433;SDS011;34290;48.562;13.384;2023-02-28T00:28:52;10.17;;;5.63;;
34433;SDS011;34290;48.562;13.384;2023-02-28T00:31:19;12.80;;;5.57;;
34433;SDS011;34290;48.562;13.384;2023-02-28T00:33:46;15.63;;;5.67;;
34433;SDS011;34290;48.562;13.384;2023-02-28T00:36:13;12.60;;;4.50;;
34433;SDS011;34290;48.562;13.384;2023-02-28T00:38:42;17.63;;;6.33;;
34433;SDS011;34290;48.562;13.384;2023-02-28T00:41:09;11.10;;;5.63;;
34433;SDS011;34290;48.562;13.384;2023-02-28T00:43:36;11.77;;;5.87;;
34433;SDS011;34290;48.562;13.384;2023-02-28T00:46:05;14.27;;;6.20;;
34433;SDS011;34290;48.562;13.384;2023-02-28T00:48:32;10.50;;;6.13;;
34433;SDS011;34290;48.562;13.384;2023-02-28T00:50:59;14.10;;;6.33;;
34433;SDS011;34290;48.562;13.384;2023-02-28T00:53:26;15.17;;;7.10;;
34433;SDS011;34290;48.562;13.384;2023-02-28T00:55:55;12.70;;;6.17;;
34433;SDS011;34290;48.562;13.384;2023-02-28T00:58:22;15.53;;;6.20;;
34433;SDS011;34290;48.562;13.384;2023-02-28T01:00:50;13.60;;;6.70;;
34433;SDS011;34290;48.562;13.384;2023-02-28T01:03:18;15.17;;;6.17;;
34433;SDS011;34290;48.562;13.384;2023-02-28T01:05:46;12.73;;;6.33;;
34433;SDS011;34290;48.562;13.384;2023-02-28T01:08:13;16.27;;;7.60;;
34433;SDS011;34290;48.562;13.384;2023-02-28T01:10:40;8.70;;;4.67;;
34433;SDS011;34290;48.562;13.384;2023-02-28T01:13:09;11.40;;;5.60;;
34433;SDS011;34290;48.562;13.384;2023-02-28T01:15:36;17.60;;;7.07;;
34433;SDS011;34290;48.562;13.384;2023-02-28T01:18:04;11.50;;;6.67;;
34433;SDS011;34290;48.562;13.384;2023-02-28T01:20:31;13.50;;;7.20;;
34433;SDS011;34290;48.562;13.384;2023-02-28T01:22:58;10.57;;;5.27;;
34433;SDS011;34290;48.562;13.384;2023-02-28T01:25:25;13.57;;;7.00;;
34433;SDS011;34290;48.562;13.384;2023-02-28T01:27:52;16.93;;;6.93;;
34433;SDS011;34290;48.562;13.384;2023-02-28T01:30:20;12.33;;;6.70;;
34433;SDS011;34290;48.562;13.384;2023-02-28T01:32:47;17.77;;;7.23;;
34433;SDS011;34290;48.562;13.384;2023-02-28T01:35:16;15.97;;;6.93;;
34433;SDS011;34290;48.562;13.384;2023-02-28T01:37:43;17.67;;;7.80;;
34433;SDS011;34290;48.562;13.384;2023-02-28T01:40:11;10.20;;;5.80;;
34433;SDS011;34290;48.562;13.384;2023-02-28T01:42:39;12.10;;;5.87;;
34433;SDS011;34290;48.562;13.384;2023-02-28T01:45:14;16.07;;;6.43;;
34433;SDS011;34290;48.562;13.384;2023-02-28T01:47:47;15.50;;;6.83;;
34433;SDS011;34290;48.562;13.384;2023-02-28T01:50:17;10.67;;;4.80;;
34433;SDS011;34290;48.562;13.384;2023-02-28T01:52:47;10.97;;;5.27;;
34433;SDS011;34290;48.562;13.384;2023-02-28T01:55:15;11.73;;;5.83;;
34433;SDS011;34290;48.562;13.384;2023-02-28T01:57:45;13.03;;;5.93;;
34433;SDS011;34290;48.562;13.384;2023-02-28T02:00:18;11.07;;;5.43;;
34433;SDS011;34290;48.562;13.384;2023-02-28T02:02:50;13.10;;;5.93;;
34433;SDS011;34290;48.562;13.384;2023-02-28T02:05:21;12.17;;;5.87;;
34433;SDS011;34290;48.562;13.384;2023-02-28T02:07:50;8.70;;;4.60;;
34433;SDS011;34290;48.562;13.384;2023-02-28T02:10:20;16.17;;;7.63;;
34433;SDS011;34290;48.562;13.384;2023-02-28T02:12:53;15.00;;;6.77;;
34433;SDS011;34290;48.562;13.384;2023-02-28T02:15:30;10.27;;;5.23;;
34433;SDS011;34290;48.562;13.384;2023-02-28T02:18:02;14.60;;;6.43;;
34433;SDS011;34290;48.562;13.384;2023-02-28T02:35:06;13.27;;;5.97;;
34433;SDS011;34290;48.562;13.384;2023-02-28T02:37:40;10.67;;;4.73;;
34433;SDS011;34290;48.562;13.384;2023-02-28T02:40:13;15.93;;;6.23;;
34433;SDS011;34290;48.562;13.384;2023-02-28T02:42:44;15.70;;;7.50;;
34433;SDS011;34290;48.562;13.384;2023-02-28T02:45:17;12.90;;;6.10;;
34433;SDS011;34290;48.562;13.384;2023-02-28T02:47:49;14.57;;;6.53;;
34433;SDS011;34290;48.562;13.384;2023-02-28T02:50:19;14.07;;;6.40;;
34433;SDS011;34290;48.562;13.384;2023-02-28T02:52:50;10.67;;;5.13;;
34433;SDS011;34290;48.562;13.384;2023-02-28T02:55:22;11.67;;;5.80;;
34433;SDS011;34290;48.562;13.384;2023-02-28T02:57:51;16.23;;;7.40;;
34433;SDS011;34290;48.562;13.384;2023-02-28T03:00:22;17.93;;;7.73;;
34433;SDS011;34290;48.562;13.384;2023-02-28T03:02:52;15.17;;;6.87;;
34433;SDS011;34290;48.562;13.384;2023-02-28T03:05:23;13.53;;;6.47;;
34433;SDS011;34290;48.562;13.384;2023-02-28T03:07:53;17.30;;;6.30;;
34433;SDS011;34290;48.562;13.384;2023-02-28T03:10:30;11.17;;;5.67;;
34433;SDS011;34290;48.562;13.384;2023-02-28T03:16:09;13.30;;;5.93;;
34433;SDS011;34290;48.562;13.384;2023-02-28T03:18:58;12.77;;;5.53;;
34433;SDS011;34290;48.562;13.384;2023-02-28T03:21:40;9.77;;;5.40;;
34433;SDS011;34290;48.562;13.384;2023-02-28T03:24:14;9.60;;;4.73;;
34433;SDS011;34290;48.562;13.384;2023-02-28T03:26:50;15.90;;;6.23;;
34433;SDS011;34290;48.562;13.384;2023-02-28T03:29:22;16.00;;;7.27;;
34433;SDS011;34290;48.562;13.384;2023-02-28T03:31:55;17.00;;;7.60;;
34433;SDS011;34290;48.562;13.384;2023-02-28T03:34:26;11.13;;;4.57;;
34433;SDS011;34290;48.562;13.384;2023-02-28T03:36:59;18.90;;;6.47;;
34433;SDS011;34290;48.562;13.384;2023-02-28T03:39:34;18.37;;;6.53;;
34433;SDS011;34290;48.562;13.384;2023-02-28T03:42:05;12.23;;;5.83;;
34433;SDS011;34290;48.562;13.384;2023-02-28T03:44:36;14.97;;;6.67;;
34433;SDS011;34290;48.562;13.384;2023-02-28T03:47:06;15.23;;;7.20;;
34433;SDS011;34290;48.562;13.384;2023-02-28T03:49:37;16.30;;;5.83;;
34433;SDS011;34290;48.562;13.384;2023-02-28T03:52:14;18.03;;;5.40;;
34433;SDS011;34290;48.562;13.384;2023-02-28T03:54:44;17.77;;;8.03;;
34433;SDS011;34290;48.562;13.384;2023-02-28T03:57:15;16.10;;;7.13;;
34433;SDS011;34290;48.562;13.384;2023-02-28T03:59:49;15.87;;;6.70;;
34433;SDS011;34290;48.562;13.384;2023-02-28T04:02:23;10.13;;;5.40;;
34433;SDS011;34290;48.562;13.384;2023-02-28T04:04:50;9.43;;;4.27;;
34433;SDS011;34290;48.562;13.384;2023-02-28T04:07:18;14.20;;;6.30;;
34433;SDS011;34290;48.562;13.384;2023-02-28T04:09:45;9.87;;;4.67;;
34433;SDS011;34290;48.562;13.384;2023-02-28T04:12:12;17.80;;;7.37;;
34433;SDS011;34290;48.562;13.384;2023-02-28T04:14:39;15.10;;;6.57;;
34433;SDS011;34290;48.562;13.384;2023-02-28T04:17:06;10.10;;;4.80;;
34433;SDS011;34290;48.562;13.384;2023-02-28T04:19:33;12.53;;;5.00;;
34433;SDS011;34290;48.562;13.384;2023-02-28T04:22:00;12.40;;;5.50;;
34433;SDS011;34290;48.562;13.384;2023-02-28T04:24:29;17.40;;;7.17;;
34433;SDS011;34290;48.562;13.384;2023-02-28T04:26:56;11.40;;;5.40;;
34433;SDS011;34290;48.562;13.384;2023-02-28T04:29:24;13.03;;;5.90;;
34433;SDS011;34290;48.562;13.384;2023-02-28T04:31:53;18.27;;;7.30;;
34433;SDS011;34290;48.562;13.384;2023-02-28T04:34:22;12.50;;;6.20;;
34433;SDS011;34290;48.562;13.384;2023-02-28T04:36:50;16.00;;;7.10;;
34433;SDS011;34290;48.562;13.384;2023-02-28T04:39:19;16.53;;;7.40;;
34433;SDS011;34290;48.562;13.384;2023-02-28T04:41:48;14.77;;;6.17;;
34433;SDS011;34290;48.562;13.384;2023-02-28T04:44:15;16.80;;;6.87;;
34433;SDS011;34290;48.562;13.384;2023-02-28T04:46:42;16.17;;;6.87;;
34433;SDS011;34290;48.562;13.384;2023-02-28T04:49:11;23.23;;;8.07;;
34433;SDS011;34290;48.562;13.384;2023-02-28T04:51:38;10.97;;;5.70;;
34433;SDS011;34290;48.562;13.384;2023-02-28T04:54:05;14.20;;;7.00;;
34433;SDS011;34290;48.562;13.384;2023-02-28T04:56:33;17.90;;;7.60;;
34433;SDS011;34290;48.562;13.384;2023-02-28T04:59:01;17.43;;;7.70;;
34433;SDS011;34290;48.562;13.384;2023-02-28T05:01:29;16.73;;;7.30;;
34433;SDS011;34290;48.562;13.384;2023-02-28T05:03:58;16.60;;;7.13;;
34433;SDS011;34290;48.562;13.384;2023-02-28T05:06:27;20.33;;;7.77;;
34433;SDS011;34290;48.562;13.384;2023-02-28T05:08:55;18.63;;;7.73;;
34433;SDS011;34290;48.562;13.384;2023-02-28T05:11:23;17.93;;;7.20;;
34433;SDS011;34290;48.562;13.384;2023-02-28T05:13:51;21.00;;;8.43;;
34433;SDS011;34290;48.562;13.384;2023-02-28T05:16:21;18.30;;;7.90;;
34433;SDS011;34290;48.562;13.384;2023-02-28T05:18:48;19.97;;;7.90;;
34433;SDS011;34290;48.562;13.384;2023-02-28T05:21:21;21.53;;;8.00;;
34433;SDS011;34290;48.562;13.384;2023-02-28T05:23:54;20.90;;;8.17;;
34433;SDS011;34290;48.562;13.384;2023-02-28T05:26:22;18.27;;;8.23;;
34433;SDS011;34290;48.562;13.384;2023-02-28T05:28:49;17.57;;;8.27;;
34433;SDS011;34290;48.562;13.384;2023-02-28T05:31:16;23.57;;;8.33;;
34433;SDS011;34290;48.562;13.384;2023-02-28T05:33:48;19.30;;;7.87;;
34433;SDS011;34290;48.562;13.384;2023-02-28T05:36:15;19.90;;;7.80;;
34433;SDS011;34290;48.562;13.384;2023-02-28T05:38:41;23.77;;;8.67;;
34433;SDS011;34290;48.562;13.384;2023-02-28T05:41:09;14.70;;;6.97;;
34433;SDS011;34290;48.562;13.384;2023-02-28T05:43:37;20.93;;;7.73;;
34433;SDS011;34290;48.562;13.384;2023-02-28T05:46:04;16.90;;;6.67;;
34433;SDS011;34290;48.562;13.384;2023-02-28T05:48:32;18.57;;;7.90;;
34433;SDS011;34290;48.562;13.384;2023-02-28T05:51:01;15.63;;;6.97;;
34433;SDS011;34290;48.562;13.384;2023-02-28T05:53:29;12.57;;;5.90;;
34433;SDS011;34290;48.562;13.384;2023-02-28T05:55:56;23.47;;;8.13;;
34433;SDS011;34290;48.562;13.384;2023-02-28T05:58:23;19.13;;;7.67;;
34433;SDS011;34290;48.562;13.384;2023-02-28T06:00:54;17.13;;;7.23;;
34433;SDS011;34290;48.562;13.384;2023-02-28T06:03:21;21.73;;;7.77;;
34433;SDS011;34290;48.562;13.384;2023-02-28T06:05:48;15.87;;;6.90;;
34433;SDS011;34290;48.562;13.384;2023-02-28T06:08:16;21.37;;;8.30;;
34433;SDS011;34290;48.562;13.384;2023-02-28T06:10:44;18.23;;;7.87;;
34433;SDS011;34290;48.562;13.384;2023-02-28T06:13:11;17.53;;;7.63;;
34433;SDS011;34290;48.562;13.384;2023-02-28T06:15:38;18.60;;;7.87;;
34433;SDS011;34290;48.562;13.384;2023-02-28T06:18:05;16.07;;;7.53;;
34433;SDS011;34290;48.562;13.384;2023-02-28T06:20:32;18.17;;;7.93;;
34433;SDS011;34290;48.562;13.384;2023-02-28T06:23:01;18.27;;;8.27;;
34433;SDS011;34290;48.562;13.384;2023-02-28T06:25:29;16.23;;;6.90;;
34433;SDS011;34290;48.562;13.384;2023-02-28T06:27:56;18.10;;;7.93;;
34433;SDS011;34290;48.562;13.384;2023-02-28T06:30:23;19.00;;;8.13;;
34433;SDS011;34290;48.562;13.384;2023-02-28T06:32:52;18.87;;;7.97;;
34433;SDS011;34290;48.562;13.384;2023-02-28T06:35:19;20.47;;;7.63;;
34433;SDS011;34290;48.562;13.384;2023-02-28T06:37:46;20.53;;;8.17;;
34433;SDS011;34290;48.562;13.384;2023-02-28T06:40:13;20.10;;;8.47;;
34433;SDS011;34290;48.562;13.384;2023-02-28T06:42:42;20.53;;;7.90;;
34433;SDS011;34290;48.562;13.384;2023-02-28T06:45:09;20.47;;;7.93;;
34433;SDS011;34290;48.562;13.384;2023-02-28T06:47:37;15.40;;;7.63;;
34433;SDS011;34290;48.562;13.384;2023-02-28T06:50:05;18.23;;;8.73;;
34433;SDS011;34290;48.562;13.384;2023-02-28T06:52:33;22.47;;;8.30;;
34433;SDS011;34290;48.562;13.384;2023-02-28T06:55:02;15.67;;;7.73;;
34433;SDS011;34290;48.562;13.384;2023-02-28T06:57:30;16.73;;;6.77;;
34433;SDS011;34290;48.562;13.384;2023-02-28T07:00:01;20.43;;;8.30;;
34433;SDS011;34290;48.562;13.384;2023-02-28T07:02:30;24.77;;;7.80;;
34433;SDS011;34290;48.562;13.384;2023-02-28T07:04:57;17.70;;;8.00;;
34433;SDS011;34290;48.562;13.384;2023-02-28T07:07:23;17.97;;;7.97;;
34433;SDS011;34290;48.562;13.384;2023-02-28T07:09:50;19.67;;;8.10;;
34433;SDS011;34290;48.562;13.384;2023-02-28T07:12:18;19.20;;;7.43;;
34433;SDS011;34290;48.562;13.384;2023-02-28T07:14:44;14.97;;;7.30;;
34433;SDS011;34290;48.562;13.384;2023-02-28T07:17:13;14.27;;;7.43;;
34433;SDS011;34290;48.562;13.384;2023-02-28T07:19:43;14.97;;;6.53;;
34433;SDS011;34290;48.562;13.384;2023-02-28T07:22:12;17.20;;;7.07;;
34433;SDS011;34290;48.562;13.384;2023-02-28T07:24:39;17.23;;;7.40;;
34433;SDS011;34290;48.562;13.384;2023-02-28T07:27:06;19.87;;;7.77;;
34433;SDS011;34290;48.562;13.384;2023-02-28T07:29:33;16.87;;;7.00;;
34433;SDS011;34290;48.562;13.384;2023-02-28T07:32:00;18.20;;;8.53;;
34433;SDS011;34290;48.562;13.384;2023-02-28T07:34:28;17.43;;;7.87;;
34433;SDS011;34290;48.562;13.384;2023-02-28T07:36:55;17.37;;;7.17;;
34433;SDS011;34290;48.562;13.384;2023-02-28T07:39:22;16.10;;;6.93;;
34433;SDS011;34290;48.562;13.384;2023-02-28T07:41:49;21.63;;;8.27;;
34433;SDS011;34290;48.562;13.384;2023-02-28T07:44:16;16.53;;;7.70;;
34433;SDS011;34290;48.562;13.384;2023-02-28T07:46:43;14.90;;;7.17;;
34433;SDS011;34290;48.562;13.384;2023-02-28T07:49:10;18.00;;;7.07;;
34433;SDS011;34290;48.562;13.384;2023-02-28T07:51:39;19.73;;;6.70;;
34433;SDS011;34290;48.562;13.384;2023-02-28T07:54:06;21.53;;;8.10;;
34433;SDS011;34290;48.562;13.384;2023-02-28T07:56:33;14.67;;;6.83;;
34433;SDS011;34290;48.562;13.384;2023-02-28T07:59:00;19.53;;;8.03;;
34433;SDS011;34290;48.562;13.384;2023-02-28T08:01:27;20.40;;;8.43;;
34433;SDS011;34290;48.562;13.384;2023-02-28T08:03:54;20.00;;;8.20;;
34433;SDS011;34290;48.562;13.384;2023-02-28T08:06:22;14.20;;;6.13;;
34433;SDS011;34290;48.562;13.384;2023-02-28T08:08:52;20.97;;;7.67;;
34433;SDS011;34290;48.562;13.384;2023-02-28T08:11:21;15.70;;;7.87;;
34433;SDS011;34290;48.562;13.384;2023-02-28T08:13:48;16.33;;;7.47;;
34433;SDS011;34290;48.562;13.384;2023-02-28T08:16:15;18.47;;;7.97;;
34433;SDS011;34290;48.562;13.384;2023-02-28T08:18:47;16.50;;;7.50;;
34433;SDS011;34290;48.562;13.384;2023-02-28T08:21:14;13.77;;;6.40;;
34433;SDS011;34290;48.562;13.384;2023-02-28T08:23:41;17.80;;;7.70;;
34433;SDS011;34290;48.562;13.384;2023-02-28T08:26:09;11.07;;;5.67;;
34433;SDS011;34290;48.562;13.384;2023-02-28T08:28:36;13.43;;;6.37;;
34433;SDS011;34290;48.562;13.384;2023-02-28T08:31:08;15.10;;;7.47;;
34433;SDS011;34290;48.562;13.384;2023-02-28T08:33:35;18.37;;;7.77;;
34433;SDS011;34290;48.562;13.384;2023-02-28T08:36:04;15.40;;;7.20;;
34433;SDS011;34290;48.562;13.384;2023-02-28T08:38:32;15.97;;;7.53;;
34433;SDS011;34290;48.562;13.384;2023-02-28T08:40:59;19.13;;;7.60;;
34433;SDS011;34290;48.562;13.384;2023-02-28T08:43:28;29.37;;;6.33;;
34433;SDS011;34290;48.562;13.384;2023-02-28T08:45:55;12.80;;;6.13;;
34433;SDS011;34290;48.562;13.384;2023-02-28T08:48:23;18.77;;;8.17;;
34433;SDS011;34290;48.562;13.384;2023-02-28T08:50:56;13.43;;;5.87;;
34433;SDS011;34290;48.562;13.384;2023-02-28T08:53:23;13.67;;;5.80;;
34433;SDS011;34290;48.562;13.384;2023-02-28T08:55:57;18.83;;;7.33;;
34433;SDS011;34290;48.562;13.384;2023-02-28T08:58:26;18.10;;;7.70;;
34433;SDS011;34290;48.562;13.384;2023-02-28T09:00:55;12.17;;;6.33;;
34433;SDS011;34290;48.562;13.384;2023-02-28T09:03:22;22.33;;;8.80;;
34433;SDS011;34290;48.562;13.384;2023-02-28T09:05:52;15.73;;;7.50;;
34433;SDS011;34290;48.562;13.384;2023-02-28T09:08:23;12.43;;;6.83;;
34433;SDS011;34290;48.562;13.384;2023-02-28T09:10:51;17.33;;;7.87;;
34433;SDS011;34290;48.562;13.384;2023-02-28T09:13:19;15.53;;;7.50;;
34433;SDS011;34290;48.562;13.384;2023-02-28T09:15:48;12.03;;;5.97;;
34433;SDS011;34290;48.562;13.384;2023-02-28T09:18:15;18.17;;;6.03;;
34433;SDS011;34290;48.562;13.384;2023-02-28T09:20:42;14.23;;;6.67;;
34433;SDS011;34290;48.562;13.384;2023-02-28T09:23:11;13.83;;;6.97;;
34433;SDS011;34290;48.562;13.384;2023-02-28T09:25:44;17.27;;;8.13;;
34433;SDS011;34290;48.562;13.384;2023-02-28T09:28:12;14.33;;;7.77;;
34433;SDS011;34290;48.562;13.384;2023-02-28T09:30:41;17.80;;;8.10;;
34433;SDS011;34290;48.562;13.384;2023-02-28T09:33:11;19.17;;;8.63;;
34433;SDS011;34290;48.562;13.384;2023-02-28T09:35:38;21.03;;;7.83;;
34433;SDS011;34290;48.562;13.384;2023-02-28T09:38:05;19.20;;;7.90;;
34433;SDS011;34290;48.562;13.384;2023-02-28T09:40:35;19.73;;;7.93;;
34433;SDS011;34290;48.562;13.384;2023-02-28T09:43:03;17.10;;;7.07;;
34433;SDS011;34290;48.562;13.384;2023-02-28T09:45:32;13.53;;;7.17;;
34433;SDS011;34290;48.562;13.384;2023-02-28T09:48:03;13.10;;;6.33;;
34433;SDS011;34290;48.562;13.384;2023-02-28T09:50:38;17.83;;;7.90;;
34433;SDS011;34290;48.562;13.384;2023-02-28T09:53:11;17.90;;;8.93;;
34433;SDS011;34290;48.562;13.384;2023-02-28T09:55:44;17.67;;;8.57;;
34433;SDS011;34290;48.562;13.384;2023-02-28T09:58:16;15.93;;;8.43;;
34433;SDS011;34290;48.562;13.384;2023-02-28T10:00:51;20.33;;;8.60;;
34433;SDS011;34290;48.562;13.384;2023-02-28T10:03:29;17.17;;;8.73;;
34433;SDS011;34290;48.562;13.384;2023-02-28T10:06:04;20.73;;;8.83;;
34433;SDS011;34290;48.562;13.384;2023-02-28T10:08:36;19.37;;;8.70;;
34433;SDS011;34290;48.562;13.384;2023-02-28T10:11:11;12.87;;;6.53;;
34433;SDS011;34290;48.562;13.384;2023-02-28T10:13:43;14.17;;;7.33;;
34433;SDS011;34290;48.562;13.384;2023-02-28T10:16:20;15.60;;;7.00;;
34433;SDS011;34290;48.562;13.384;2023-02-28T10:18:52;17.63;;;7.67;;
34433;SDS011;34290;48.562;13.384;2023-02-28T10:21:26;20.00;;;8.13;;
34433;SDS011;34290;48.562;13.384;2023-02-28T10:23:58;16.03;;;7.27;;
34433;SDS011;34290;48.562;13.384;2023-02-28T10:26:29;18.77;;;7.83;;
34433;SDS011;34290;48.562;13.384;2023-02-28T10:28:58;22.77;;;8.63;;
34433;SDS011;34290;48.562;13.384;2023-02-28T10:31:25;19.90;;;7.83;;
34433;SDS011;34290;48.562;13.384;2023-02-28T10:33:52;21.07;;;9.43;;
34433;SDS011;34290;48.562;13.384;2023-02-28T10:36:20;19.60;;;8.47;;
34433;SDS011;34290;48.562;13.384;2023-02-28T10:38:49;16.57;;;7.17;;
34433;SDS011;34290;48.562;13.384;2023-02-28T10:41:17;17.43;;;6.70;;
34433;SDS011;34290;48.562;13.384;2023-02-28T10:43:57;17.57;;;8.43;;
34433;SDS011;34290;48.562;13.384;2023-02-28T10:46:40;18.20;;;8.77;;
34433;SDS011;34290;48.562;13.384;2023-02-28T10:49:12;19.83;;;8.73;;
34433;SDS011;34290;48.562;13.384;2023-02-28T10:51:41;20.40;;;7.70;;
34433;SDS011;34290;48.562;13.384;2023-02-28T10:54:16;17.60;;;8.07;;
34433;SDS011;34290;48.562;13.384;2023-02-28T10:56:44;21.80;;;10.13;;
34433;SDS011;34290;48.562;13.384;2023-02-28T10:59:24;18.60;;;8.90;;
34433;SDS011;34290;48.562;13.384;2023-02-28T11:01:54;23.63;;;8.50;;
34433;SDS011;34290;48.562;13.384;2023-02-28T11:04:31;19.03;;;8.30;;
34433;SDS011;34290;48.562;13.384;2023-02-28T11:07:03;19.07;;;8.27;;
34433;SDS011;34290;48.562;13.384;2023-02-28T11:09:34;21.10;;;8.80;;
34433;SDS011;34290;48.562;13.384;2023-02-28T11:12:04;17.13;;;8.77;;
34433;SDS011;34290;48.562;13.384;2023-02-28T11:14:35;17.50;;;9.07;;
34433;SDS011;34290;48.562;13.384;2023-02-28T11:17:11;19.93;;;8.10;;
34433;SDS011;34290;48.562;13.384;2023-02-28T11:19:43;18.90;;;9.17;;
34433;SDS011;34290;48.562;13.384;2023-02-28T11:22:16;21.57;;;8.83;;
34433;SDS011;34290;48.562;13.384;2023-02-28T11:24:47;17.27;;;8.00;;
34433;SDS011;34290;48.562;13.384;2023-02-28T11:27:42;16.70;;;7.60;;
34433;SDS011;34290;48.562;13.384;2023-02-28T11:30:28;16.13;;;7.17;;
34433;SDS011;34290;48.562;13.384;2023-02-28T11:32:58;22.20;;;9.13;;
34433;SDS011;34290;48.562;13.384;2023-02-28T11:35:27;19.90;;;8.80;;
34433;SDS011;34290;48.562;13.384;2023-02-28T11:37:56;24.67;;;8.73;;
34433;SDS011;34290;48.562;13.384;2023-02-28T11:40:28;21.57;;;9.43;;
34433;SDS011;34290;48.562;13.384;2023-02-28T11:43:16;18.70;;;7.53;;
34433;SDS011;34290;48.562;13.384;2023-02-28T11:45:56;20.40;;;8.47;;
34433;SDS011;34290;48.562;13.384;2023-02-28T11:48:38;19.67;;;8.93;;
34433;SDS011;34290;48.562;13.384;2023-02-28T11:51:15;21.47;;;9.70;;
34433;SDS011;34290;48.562;13.384;2023-02-28T11:53:51;17.83;;;8.17;;
34433;SDS011;34290;48.562;13.384;2023-02-28T11:56:44;21.53;;;9.67;;
34433;SDS011;34290;48.562;13.384;2023-02-28T11:59:19;21.33;;;10.03;;
34433;SDS011;34290;48.562;13.384;2023-02-28T12:02:05;25.03;;;10.03;;
34433;SDS011;34290;48.562;13.384;2023-02-28T12:04:48;19.90;;;9.00;;
34433;SDS011;34290;48.562;13.384;2023-02-28T12:07:28;19.20;;;8.87;;
34433;SDS011;34290;48.562;13.384;2023-02-28T12:10:03;21.27;;;10.13;;
34433;SDS011;34290;48.562;13.384;2023-02-28T12:12:43;14.57;;;7.90;;
34433;SDS011;34290;48.562;13.384;2023-02-28T12:15:27;21.77;;;9.20;;
34433;SDS011;34290;48.562;13.384;2023-02-28T12:18:07;23.23;;;9.13;;
34433;SDS011;34290;48.562;13.384;2023-02-28T12:20:45;20.97;;;9.00;;
34433;SDS011;34290;48.562;13.384;2023-02-28T12:23:26;17.90;;;8.07;;
34433;SDS011;34290;48.562;13.384;2023-02-28T12:26:13;22.07;;;9.73;;
34433;SDS011;34290;48.562;13.384;2023-02-28T12:28:47;14.20;;;6.53;;
34433;SDS011;34290;48.562;13.384;2023-02-28T12:31:18;21.40;;;8.77;;
34433;SDS011;34290;48.562;13.384;2023-02-28T12:33:50;25.80;;;8.83;;
34433;SDS011;34290;48.562;13.384;2023-02-28T12:36:20;20.47;;;8.43;;
34433;SDS011;34290;48.562;13.384;2023-02-28T12:38:50;21.37;;;9.87;;
34433;SDS011;34290;48.562;13.384;2023-02-28T12:41:22;27.93;;;10.30;;
34433;SDS011;34290;48.562;13.384;2023-02-28T12:43:57;23.07;;;10.00;;
34433;SDS011;34290;48.562;13.384;2023-02-28T12:46:29;20.23;;;9.23;;
34433;SDS011;34290;48.562;13.384;2023-02-28T12:49:00;19.90;;;8.40;;
34433;SDS011;34290;48.562;13.384;2023-02-28T12:51:31;23.80;;;8.60;;
34433;SDS011;34290;48.562;13.384;2023-02-28T12:54:04;21.73;;;9.97;;
34433;SDS011;34290;48.562;13.384;2023-02-28T12:56:38;25.37;;;10.67;;
34433;SDS011;34290;48.562;13.384;2023-02-28T12:59:14;26.90;;;10.40;;
34433;SDS011;34290;48.562;13.384;2023-02-28T13:01:56;23.07;;;9.97;;
34433;SDS011;34290;48.562;13.384;2023-02-28T13:04:41;20.70;;;9.87;;
34433;SDS011;34290;48.562;13.384;2023-02-28T13:10:18;27.20;;;9.87;;
34433;SDS011;34290;48.562;13.384;2023-02-28T13:12:49;23.53;;;9.67;;
34433;SDS011;34290;48.562;13.384;2023-02-28T13:15:19;24.07;;;9.93;;
34433;SDS011;34290;48.562;13.384;2023-02-28T13:17:50;25.07;;;10.73;;
34433;SDS011;34290;48.562;13.384;2023-02-28T13:20:19;29.40;;;11.13;;
34433;SDS011;34290;48.562;13.384;2023-02-28T13:22:48;23.97;;;10.60;;
34433;SDS011;34290;48.562;13.384;2023-02-28T13:31:32;24.90;;;10.07;;
34433;SDS011;34290;48.562;13.384;2023-02-28T13:34:15;24.00;;;10.23;;
34433;SDS011;34290;48.562;13.384;2023-02-28T13:36:42;23.80;;;10.70;;
34433;SDS011;34290;48.562;13.384;2023-02-28T13:42:31;25.60;;;10.80;;
34433;SDS011;34290;48.562;13.384;2023-02-28T13:45:21;25.93;;;10.63;;
34433;SDS011;34290;48.562;13.384;2023-02-28T13:47:58;27.10;;;11.00;;
34433;SDS011;34290;48.562;13.384;2023-02-28T13:50:27;25.87;;;11.03;;
34433;SDS011;34290;48.562;13.384;2023-02-28T13:53:13;19.77;;;9.63;;
34433;SDS011;34290;48.562;13.384;2023-02-28T13:55:57;19.57;;;8.90;;
34433;SDS011;34290;48.562;13.384;2023-02-28T13:58:35;24.77;;;11.57;;
34433;SDS011;34290;48.562;13.384;2023-02-28T14:01:22;18.10;;;8.43;;
34433;SDS011;34290;48.562;13.384;2023-02-28T14:07:04;18.77;;;8.10;;
34433;SDS011;34290;48.562;13.384;2023-02-28T14:09:34;20.13;;;9.00;;
34433;SDS011;34290;48.562;13.384;2023-02-28T14:18:06;23.47;;;9.33;;
34433;SDS011;34290;48.562;13.384;2023-02-28T14:20:52;25.47;;;10.20;;
34433;SDS011;34290;48.562;13.384;2023-02-28T14:23:25;30.63;;;8.33;;
34433;SDS011;34290;48.562;13.384;2023-02-28T14:26:37;36.00;;;11.03;;
34433;SDS011;34290;48.562;13.384;2023-02-28T14:29:33;26.40;;;11.17;;
34433;SDS011;34290;48.562;13.384;2023-02-28T14:32:19;17.13;;;8.67;;
34433;SDS011;34290;48.562;13.384;2023-02-28T14:34:54;21.10;;;10.47;;
34433;SDS011;34290;48.562;13.384;2023-02-28T14:37:31;24.43;;;9.77;;
34433;SDS011;34290;48.562;13.384;2023-02-28T14:40:04;27.87;;;11.20;;
34433;SDS011;34290;48.562;13.384;2023-02-28T14:42:45;21.60;;;10.77;;
34433;SDS011;34290;48.562;13.384;2023-02-28T14:45:17;25.47;;;9.47;;
34433;SDS011;34290;48.562;13.384;2023-02-28T14:47:45;22.37;;;9.07;;
34433;SDS011;34290;48.562;13.384;2023-02-28T14:50:17;21.73;;;10.10;;
34433;SDS011;34290;48.562;13.384;2023-02-28T14:52:47;19.13;;;8.07;;
34433;SDS011;34290;48.562;13.384;2023-02-28T14:55:18;23.87;;;10.07;;
34433;SDS011;34290;48.562;13.384;2023-02-28T14:57:52;21.87;;;9.87;;
34433;SDS011;34290;48.562;13.384;2023-02-28T15:00:22;20.10;;;8.53;;
34433;SDS011;34290;48.562;13.384;2023-02-28T15:02:50;23.10;;;10.70;;
34433;SDS011;34290;48.562;13.384;2023-02-28T15:05:21;25.83;;;10.27;;
34433;SDS011;34290;48.562;13.384;2023-02-28T15:08:03;20.83;;;9.87;;
34433;SDS011;34290;48.562;13.384;2023-02-28T15:10:31;21.63;;;10.20;;
34433;SDS011;34290;48.562;13.384;2023-02-28T15:12:59;23.13;;;10.67;;
34433;SDS011;34290;48.562;13.384;2023-02-28T15:15:30;30.87;;;11.77;;
34433;SDS011;34290;48.562;13.384;2023-02-28T15:18:10;22.03;;;9.67;;
34433;SDS011;34290;48.562;13.384;2023-02-28T15:20:42;27.07;;;11.37;;
34433;SDS011;34290;48.562;13.384;2023-02-28T15:23:12;15.60;;;8.13;;